Search for airport 
image banner adimage banner adimage banner ad
image banner ad

KSZP - Santa Paula

Located in Santa Paula, United States

ICAO - SZP, IATA -

Data provided by Airmate  

General information

Coordinates: N34°20'49" W119°3'42"
Elevation is 250 feet MSL.
Magnetic variation is 14° East
View others Airports in California

Operational data

Special qualification required
Current time UTC:
Current local time:
Weather at : KCMA - Camarillo ( 15 km )
METAR: KCMA 210955Z AUTO 21004KT 8SM OVC008 18/14 A2992 RMK AO2 SLP139 T01780139
TAF: KCMA 210901Z 2109/2206 VRB03KT P6SM OVC008 FM211800 23006KT P6SM BKN011 FM212000 24009KT P6SM SCT011 FM220400 28008KT 6SM BR OVC006
View NOTAMs / SUP AIP / TFR affecting this airport [VIEW]
Communications frequencies: [VIEW]

Runways:

RWY identifierQFULength (ft)Width (ft)SurfaceLDA (ft)
04266560ASPH
22266560ASPH

Airport contact information

Address: Santa Paula United States

Other aviation service providers

Flight schools

Cp Aviation

Cp Aviation
judy@cpaviation.com+1(805)525-2138

Satellite view of KSZP